createdAt,value
2023-04-16T00:01:27.888Z,1.92
2023-04-16T00:03:55.474Z,2.00
2023-04-16T00:06:22.979Z,1.70
2023-04-16T00:08:50.346Z,2.03
2023-04-16T00:11:17.518Z,1.60
2023-04-16T00:13:44.457Z,1.55
2023-04-16T00:16:11.194Z,4.20
2023-04-16T00:18:37.860Z,1.80
2023-04-16T00:21:04.690Z,2.15
2023-04-16T00:23:31.485Z,2.10
2023-04-16T00:26:00.113Z,2.70
2023-04-16T00:28:29.900Z,2.60
2023-04-16T00:30:56.668Z,2.20
2023-04-16T00:33:23.691Z,2.40
2023-04-16T00:35:51.249Z,2.33
2023-04-16T00:38:17.992Z,2.30
2023-04-16T00:40:44.613Z,2.55
2023-04-16T00:43:11.280Z,2.35
2023-04-16T00:45:38.324Z,3.10
2023-04-16T00:48:05.944Z,2.90
2023-04-16T00:50:33.636Z,2.15
2023-04-16T00:53:01.696Z,2.92
2023-04-16T00:55:28.461Z,2.40
2023-04-16T00:57:55.137Z,2.50
2023-04-16T01:00:22.059Z,2.50
2023-04-16T01:02:48.805Z,2.30
2023-04-16T01:05:15.775Z,2.38
2023-04-16T01:07:42.508Z,2.20
2023-04-16T01:10:09.259Z,2.30
2023-04-16T01:12:35.913Z,2.40
2023-04-16T01:15:03.215Z,2.00
2023-04-16T01:17:29.934Z,2.13
2023-04-16T01:20:00.425Z,6.72
2023-04-16T01:22:30.050Z,2.60
2023-04-16T01:24:56.715Z,1.63
2023-04-16T01:27:23.372Z,2.33
2023-04-16T01:29:50.075Z,1.98
2023-04-16T01:32:16.756Z,2.10
2023-04-16T01:34:43.425Z,2.03
2023-04-16T01:37:10.145Z,1.90
2023-04-16T01:39:36.784Z,1.77
2023-04-16T01:42:03.503Z,1.80
2023-04-16T01:44:31.040Z,1.50
2023-04-16T01:46:57.796Z,1.90
2023-04-16T01:49:24.593Z,1.90
2023-04-16T01:51:51.671Z,2.10
2023-04-16T01:54:18.332Z,2.13
2023-04-16T01:56:45.079Z,1.77
2023-04-16T01:59:12.324Z,2.10
2023-04-16T02:01:39.390Z,1.90
2023-04-16T02:04:06.596Z,2.05
2023-04-16T02:06:33.248Z,2.17
2023-04-16T02:08:59.916Z,2.15
2023-04-16T02:11:26.588Z,2.03
2023-04-16T02:13:53.249Z,1.87
2023-04-16T02:16:19.872Z,1.90
2023-04-16T02:18:46.649Z,2.28
2023-04-16T02:21:13.894Z,2.40
2023-04-16T02:23:41.428Z,2.40
2023-04-16T02:26:08.174Z,2.47
2023-04-16T02:28:34.841Z,2.45
2023-04-16T02:31:01.523Z,3.00
2023-04-16T02:33:28.685Z,3.63
2023-04-16T02:35:55.489Z,2.78
2023-04-16T02:38:22.164Z,2.60
2023-04-16T02:40:48.917Z,2.78
2023-04-16T02:43:15.754Z,2.40
2023-04-16T02:45:42.460Z,2.58
2023-04-16T02:48:09.699Z,2.38
2023-04-16T02:50:36.400Z,2.50
2023-04-16T02:53:04.309Z,2.75
2023-04-16T02:55:31.070Z,2.80
2023-04-16T02:57:57.741Z,2.65
2023-04-16T03:00:24.388Z,2.90
2023-04-16T03:02:51.198Z,2.70
2023-04-16T03:05:18.081Z,3.45
2023-04-16T03:07:44.670Z,2.63
2023-04-16T03:10:12.001Z,2.33
2023-04-16T03:12:39.223Z,2.25
2023-04-16T03:15:06.364Z,2.50
2023-04-16T03:17:33.120Z,2.20
2023-04-16T03:19:59.860Z,2.03
2023-04-16T03:22:27.076Z,2.33
2023-04-16T03:24:53.856Z,2.50
2023-04-16T03:27:20.594Z,2.00
2023-04-16T03:29:47.240Z,2.08
2023-04-16T03:32:13.981Z,2.40
2023-04-16T03:34:40.903Z,2.45
2023-04-16T03:37:08.954Z,2.10
2023-04-16T03:39:35.595Z,2.00
2023-04-16T03:42:02.507Z,2.40
2023-04-16T03:44:29.823Z,2.10
2023-04-16T03:46:56.504Z,2.10
2023-04-16T03:49:23.393Z,2.20
2023-04-16T03:51:49.973Z,2.17
2023-04-16T03:54:16.764Z,2.05
2023-04-16T03:56:43.468Z,2.00
2023-04-16T03:59:10.472Z,2.10
2023-04-16T04:01:37.255Z,2.03
2023-04-16T04:04:04.132Z,2.10
2023-04-16T04:06:31.099Z,1.92
2023-04-16T04:08:59.051Z,1.98
2023-04-16T04:11:26.201Z,2.30
2023-04-16T04:13:52.841Z,2.10
2023-04-16T04:16:19.579Z,1.90
2023-04-16T04:18:46.441Z,2.10
2023-04-16T04:21:13.114Z,2.03
2023-04-16T04:23:41.577Z,2.30
2023-04-16T04:26:08.603Z,2.30
2023-04-16T04:28:36.086Z,1.93
2023-04-16T04:31:02.987Z,2.28
2023-04-16T04:33:29.616Z,1.70
2023-04-16T04:35:56.447Z,2.00
2023-04-16T04:38:25.351Z,1.90
2023-04-16T04:40:52.882Z,1.80
2023-04-16T04:43:22.641Z,1.50
2023-04-16T04:45:49.624Z,2.20
2023-04-16T04:48:16.654Z,2.20
2023-04-16T04:50:45.482Z,1.98
2023-04-16T04:53:14.671Z,2.00
2023-04-16T04:55:41.574Z,2.10
2023-04-16T04:58:08.639Z,2.15
2023-04-16T05:00:36.762Z,2.00
2023-04-16T05:03:06.133Z,2.40
2023-04-16T05:05:33.034Z,2.33
2023-04-16T05:07:59.737Z,2.38
2023-04-16T05:10:26.990Z,2.20
2023-04-16T05:12:53.638Z,2.10
2023-04-16T05:15:20.307Z,2.17
2023-04-16T05:17:46.990Z,2.17
2023-04-16T05:20:13.831Z,2.13
2023-04-16T05:22:40.492Z,2.55
2023-04-16T05:25:07.392Z,2.20
2023-04-16T05:27:34.010Z,2.22
2023-04-16T05:30:00.734Z,2.30
2023-04-16T05:32:27.881Z,2.53
2023-04-16T05:34:54.704Z,2.83
2023-04-16T05:37:21.361Z,2.60
2023-04-16T05:39:47.985Z,2.60
2023-04-16T05:42:14.632Z,3.00
2023-04-16T05:44:41.316Z,2.45
2023-04-16T05:47:09.423Z,2.58
2023-04-16T05:49:39.378Z,2.63
2023-04-16T05:52:06.194Z,2.97
2023-04-16T05:54:32.887Z,3.13
2023-04-16T05:57:01.084Z,2.75
2023-04-16T05:59:27.967Z,2.60
2023-04-16T06:01:54.651Z,3.13
2023-04-16T06:04:21.463Z,3.33
2023-04-16T06:06:48.203Z,3.27
2023-04-16T06:09:14.842Z,2.67
2023-04-16T06:11:41.674Z,3.78
2023-04-16T06:14:08.309Z,2.67
2023-04-16T06:16:34.969Z,2.40
2023-04-16T06:19:01.717Z,2.63
2023-04-16T06:21:28.940Z,4.57
2023-04-16T06:23:56.176Z,2.83
2023-04-16T06:26:22.894Z,2.05
2023-04-16T06:28:50.374Z,2.72
2023-04-16T06:31:17.306Z,2.80
2023-04-16T06:33:43.992Z,3.00
2023-04-16T06:36:11.577Z,3.35
2023-04-16T06:38:38.416Z,3.80
2023-04-16T06:41:05.178Z,3.95
2023-04-16T06:43:33.528Z,3.70
2023-04-16T06:46:00.561Z,3.53
2023-04-16T06:48:27.695Z,4.38
2023-04-16T06:50:56.034Z,4.82
2023-04-16T06:53:23.847Z,5.03
2023-04-16T06:55:51.961Z,5.07
2023-04-16T06:58:18.643Z,5.20
2023-04-16T07:00:45.517Z,3.30
2023-04-16T07:03:12.481Z,4.68
2023-04-16T07:05:39.354Z,3.58
2023-04-16T07:08:06.101Z,4.53
2023-04-16T07:10:32.711Z,5.28
2023-04-16T07:13:01.518Z,4.43
2023-04-16T07:15:28.941Z,3.15
2023-04-16T07:17:55.633Z,3.03
2023-04-16T07:20:22.547Z,2.93
2023-04-16T07:22:49.594Z,3.33
2023-04-16T07:25:16.281Z,3.33
2023-04-16T07:27:42.972Z,3.20
2023-04-16T07:30:09.918Z,3.38
2023-04-16T07:32:36.651Z,3.23
2023-04-16T07:35:03.914Z,2.65
2023-04-16T07:37:30.982Z,2.83
2023-04-16T07:39:57.875Z,2.95
2023-04-16T07:42:24.588Z,2.75
2023-04-16T07:44:51.229Z,2.20
2023-04-16T07:47:17.883Z,2.58
2023-04-16T07:49:44.602Z,2.45
2023-04-16T07:52:11.924Z,2.38
2023-04-16T07:54:38.533Z,2.20
2023-04-16T07:57:05.397Z,2.07
2023-04-16T07:59:32.142Z,1.80
2023-04-16T08:01:58.916Z,2.20
2023-04-16T08:04:26.566Z,1.98
2023-04-16T08:06:53.952Z,2.50
2023-04-16T08:09:21.712Z,2.30
2023-04-16T08:11:49.982Z,2.22
2023-04-16T08:14:17.377Z,3.08
2023-04-16T08:16:44.255Z,2.30
2023-04-16T08:19:11.115Z,2.17
2023-04-16T08:21:37.981Z,2.40
2023-04-16T08:24:06.101Z,2.20
2023-04-16T08:26:32.760Z,2.42
2023-04-16T08:28:59.415Z,2.40
2023-04-16T08:31:26.318Z,2.55
2023-04-16T08:33:53.415Z,2.13
2023-04-16T08:36:20.743Z,1.92
2023-04-16T08:38:47.383Z,2.40
2023-04-16T08:41:14.982Z,2.20
2023-04-16T08:43:44.999Z,2.20
2023-04-16T08:46:12.519Z,2.00
2023-04-16T08:48:43.010Z,2.20
2023-04-16T08:51:12.030Z,2.20
2023-04-16T08:54:08.545Z,2.50
2023-04-16T08:56:37.495Z,2.58
2023-04-16T08:59:07.597Z,2.47
2023-04-16T09:01:35.511Z,3.15
2023-04-16T09:04:03.072Z,3.60
2023-04-16T09:06:31.417Z,3.55
2023-04-16T09:08:59.581Z,3.42
2023-04-16T09:11:26.624Z,3.47
2023-04-16T09:13:53.639Z,3.67
2023-04-16T09:16:21.218Z,3.60
2023-04-16T09:18:47.980Z,3.92
2023-04-16T09:21:15.349Z,3.92
2023-04-16T09:23:42.068Z,3.67
2023-04-16T09:26:08.696Z,3.55
2023-04-16T09:28:43.313Z,4.07
2023-04-16T09:31:10.113Z,5.32
2023-04-16T09:33:36.880Z,3.35
2023-04-16T09:36:03.904Z,3.60
2023-04-16T09:38:50.690Z,3.65
2023-04-16T09:41:17.883Z,3.83
2023-04-16T09:44:01.879Z,3.10
2023-04-16T09:46:34.658Z,2.90
2023-04-16T09:49:19.567Z,3.30
2023-04-16T09:51:49.583Z,4.47
2023-04-16T09:54:16.421Z,5.15
2023-04-16T09:56:46.412Z,4.63
2023-04-16T09:59:23.331Z,5.25
2023-04-16T10:01:50.791Z,5.13
2023-04-16T10:04:17.678Z,5.15
2023-04-16T10:06:44.688Z,4.93
2023-04-16T10:09:11.599Z,4.63
2023-04-16T10:11:39.448Z,4.70
2023-04-16T10:14:06.258Z,4.63
2023-04-16T10:16:33.731Z,4.47
2023-04-16T10:19:00.517Z,4.65
2023-04-16T10:21:33.816Z,5.22
2023-04-16T10:24:01.730Z,5.80
2023-04-16T10:26:30.674Z,5.10
2023-04-16T10:28:58.890Z,5.57
2023-04-16T10:31:26.437Z,5.38
2023-04-16T10:33:53.772Z,6.55
2023-04-16T10:36:25.079Z,6.28
2023-04-16T10:38:53.085Z,6.97
2023-04-16T10:41:20.783Z,7.57
2023-04-16T10:43:49.865Z,8.57
2023-04-16T10:46:46.195Z,8.93
2023-04-16T10:49:15.864Z,10.10
2023-04-16T10:51:42.496Z,9.10
2023-04-16T10:54:09.276Z,9.27
2023-04-16T10:56:37.186Z,9.68
2023-04-16T10:59:17.476Z,9.02
2023-04-16T11:01:45.954Z,9.20
2023-04-16T11:04:21.937Z,9.37
2023-04-16T11:07:15.681Z,9.15
2023-04-16T11:10:13.286Z,10.40
2023-04-16T11:12:44.895Z,10.40
2023-04-16T11:15:15.680Z,11.07
2023-04-16T11:17:47.652Z,11.20
2023-04-16T11:20:22.568Z,10.70
2023-04-16T11:22:50.920Z,11.38
2023-04-16T11:25:25.935Z,10.07
2023-04-16T11:27:53.226Z,11.00
2023-04-16T11:30:32.288Z,11.20
2023-04-16T11:32:59.326Z,10.77
2023-04-16T11:35:26.226Z,10.48
2023-04-16T11:37:57.133Z,11.50
2023-04-16T11:40:24.679Z,11.73
2023-04-16T11:42:51.286Z,11.47
2023-04-16T11:45:21.142Z,11.60
2023-04-16T11:47:52.705Z,10.95
2023-04-16T11:50:23.161Z,11.93
2023-04-16T11:52:52.028Z,11.70
2023-04-16T11:55:19.677Z,11.70
2023-04-16T11:57:46.891Z,10.85
2023-04-16T12:00:14.712Z,10.73
2023-04-16T12:02:46.594Z,10.13
2023-04-16T12:05:33.769Z,10.80
2023-04-16T12:08:02.623Z,9.60
2023-04-16T12:10:30.287Z,10.63
2023-04-16T12:13:16.873Z,10.55
2023-04-16T12:15:53.914Z,10.48
2023-04-16T12:18:26.803Z,10.60
2023-04-16T12:20:53.670Z,10.13
2023-04-16T12:23:32.953Z,11.25
2023-04-16T12:26:10.455Z,11.23
2023-04-16T12:28:41.682Z,10.50
2023-04-16T12:31:10.626Z,11.25
2023-04-16T12:33:37.451Z,10.10
2023-04-16T12:36:20.196Z,10.70
2023-04-16T12:38:46.983Z,10.73
2023-04-16T12:41:13.633Z,10.50
2023-04-16T12:43:40.438Z,10.80
2023-04-16T12:46:07.201Z,10.10
2023-04-16T12:48:34.638Z,10.45
2023-04-16T12:51:01.850Z,9.88
2023-04-16T12:53:28.618Z,9.38
2023-04-16T12:55:55.519Z,9.23
2023-04-16T12:58:22.231Z,10.70
2023-04-16T13:00:49.078Z,10.15
2023-04-16T13:03:16.364Z,11.50
2023-04-16T13:05:43.086Z,9.27
2023-04-16T13:08:09.846Z,10.68
2023-04-16T13:10:36.610Z,10.03
2023-04-16T13:13:03.310Z,9.93
2023-04-16T13:15:30.016Z,10.30
2023-04-16T13:17:56.768Z,9.60
2023-04-16T13:20:24.623Z,9.35
2023-04-16T13:22:51.658Z,8.87
2023-04-16T13:25:18.553Z,9.20
2023-04-16T13:27:45.516Z,8.50
2023-04-16T13:30:12.601Z,8.65
2023-04-16T13:32:40.548Z,8.77
2023-04-16T13:35:07.572Z,9.33
2023-04-16T13:37:34.737Z,9.98
2023-04-16T13:40:01.395Z,10.52
2023-04-16T13:43:22.302Z,10.37
2023-04-16T13:45:49.049Z,10.82
2023-04-16T13:48:16.086Z,9.10
2023-04-16T13:50:42.731Z,9.20
2023-04-16T13:53:09.481Z,10.27
2023-04-16T13:55:36.132Z,7.40
2023-04-16T13:58:02.911Z,8.30
2023-04-16T14:00:29.811Z,8.90
2023-04-16T14:02:56.746Z,8.27
2023-04-16T14:05:25.794Z,8.18
2023-04-16T14:07:53.804Z,10.17
2023-04-16T14:10:20.953Z,7.53
2023-04-16T14:12:47.669Z,6.55
2023-04-16T14:15:14.942Z,8.07
2023-04-16T14:17:45.363Z,7.80
2023-04-16T14:20:13.709Z,7.13
2023-04-16T14:22:42.415Z,7.50
2023-04-16T14:25:09.097Z,7.72
2023-04-16T14:27:35.869Z,8.05
2023-04-16T14:30:02.508Z,7.15
2023-04-16T14:32:29.194Z,7.57
2023-04-16T14:34:56.193Z,7.40
2023-04-16T14:37:22.832Z,7.18
2023-04-16T14:39:50.449Z,7.07
2023-04-16T14:42:17.144Z,6.43
2023-04-16T14:44:43.829Z,6.07
2023-04-16T14:47:10.659Z,7.35
2023-04-16T14:49:37.345Z,7.25
2023-04-16T14:52:05.726Z,6.20
2023-04-16T14:54:33.309Z,6.38
2023-04-16T14:57:00.124Z,6.30
2023-04-16T14:59:26.775Z,6.22
2023-04-16T15:01:55.536Z,5.88
2023-04-16T15:04:22.418Z,5.47
2023-04-16T15:06:49.891Z,6.22
2023-04-16T15:09:16.621Z,5.77
2023-04-16T15:11:43.290Z,5.78
2023-04-16T15:14:10.175Z,6.15
2023-04-16T15:16:37.215Z,5.25
2023-04-16T15:19:05.172Z,5.15
2023-04-16T15:21:32.956Z,4.57
2023-04-16T15:23:59.709Z,4.97
2023-04-16T15:26:26.531Z,4.32
2023-04-16T15:28:53.229Z,4.32
2023-04-16T15:31:20.904Z,4.72
2023-04-16T15:33:48.605Z,4.50
2023-04-16T15:36:16.123Z,5.47
2023-04-16T15:38:42.824Z,5.43
2023-04-16T15:41:10.583Z,4.97
2023-04-16T15:43:37.258Z,4.57
2023-04-16T15:46:04.000Z,5.47
2023-04-16T15:48:30.801Z,5.70
2023-04-16T15:50:57.425Z,4.68
2023-04-16T15:53:24.144Z,4.40
2023-04-16T15:55:52.847Z,4.65
2023-04-16T15:58:20.931Z,5.43
2023-04-16T16:00:49.968Z,5.20
2023-04-16T16:03:20.656Z,5.15
2023-04-16T16:05:50.703Z,5.40
2023-04-16T16:08:17.441Z,4.68
2023-04-16T16:10:44.141Z,5.90
2023-04-16T16:13:13.253Z,5.25
2023-04-16T16:15:43.351Z,5.45
2023-04-16T16:18:10.159Z,6.13
2023-04-16T16:20:37.136Z,6.13
2023-04-16T16:23:03.918Z,5.07
2023-04-16T16:25:30.613Z,4.85
2023-04-16T16:27:58.881Z,6.68
2023-04-16T16:30:26.457Z,6.85
2023-04-16T16:32:54.052Z,6.88
2023-04-16T16:35:20.954Z,7.80
2023-04-16T16:37:47.787Z,7.25
2023-04-16T16:40:14.752Z,6.43
2023-04-16T16:42:41.529Z,5.50
2023-04-16T16:45:08.901Z,4.47
2023-04-16T16:47:35.610Z,4.50
2023-04-16T16:50:03.171Z,4.20
2023-04-16T16:52:30.152Z,4.50
2023-04-16T16:54:56.884Z,4.70
2023-04-16T16:57:26.394Z,5.25
2023-04-16T16:59:54.494Z,4.60
2023-04-16T17:02:21.743Z,4.40
2023-04-16T17:04:48.363Z,4.63
2023-04-16T17:07:15.001Z,5.95
2023-04-16T17:09:41.985Z,6.25
2023-04-16T17:12:08.685Z,4.60
2023-04-16T17:14:35.655Z,3.78
2023-04-16T17:17:02.494Z,3.63
2023-04-16T17:19:29.396Z,3.50
2023-04-16T17:21:56.372Z,3.53
2023-04-16T17:24:23.238Z,4.10
2023-04-16T17:26:50.791Z,4.60
2023-04-16T17:29:17.698Z,3.92
2023-04-16T17:31:44.603Z,3.97
2023-04-16T17:34:11.642Z,4.50
2023-04-16T17:36:38.639Z,4.50
2023-04-16T17:39:05.446Z,6.13
2023-04-16T17:41:32.138Z,5.00
2023-04-16T17:43:58.827Z,4.13
2023-04-16T17:46:25.758Z,3.80
2023-04-16T17:48:52.553Z,4.03
2023-04-16T17:51:19.254Z,4.88
2023-04-16T17:53:46.311Z,8.50
2023-04-16T17:56:13.923Z,4.65
2023-04-16T17:58:40.748Z,4.20
2023-04-16T18:01:07.512Z,4.37
2023-04-16T18:03:34.878Z,4.22
2023-04-16T18:06:01.784Z,4.85
2023-04-16T18:08:28.842Z,4.32
2023-04-16T18:10:56.591Z,3.92
2023-04-16T18:13:24.294Z,4.00
2023-04-16T18:15:51.610Z,3.72
2023-04-16T18:18:18.622Z,4.15
2023-04-16T18:20:45.382Z,5.22
2023-04-16T18:23:12.044Z,4.78
2023-04-16T18:28:06.310Z,4.32
2023-04-16T18:30:33.772Z,3.95
2023-04-16T18:33:30.719Z,4.07
2023-04-16T18:35:47.292Z,4.20
2023-04-16T18:38:14.065Z,4.03
2023-04-16T18:40:41.634Z,4.50
2023-04-16T18:43:08.286Z,7.18
2023-04-16T18:45:34.952Z,3.90
2023-04-16T18:48:03.597Z,3.25
2023-04-16T18:50:30.269Z,3.67
2023-04-16T18:52:56.965Z,2.92
2023-04-16T18:55:23.774Z,2.90
2023-04-16T18:57:50.546Z,3.30
2023-04-16T19:00:17.473Z,3.30
2023-04-16T19:02:44.387Z,3.20
2023-04-16T19:05:11.343Z,3.25
2023-04-16T19:07:38.558Z,3.10
2023-04-16T19:10:05.859Z,3.90
2023-04-16T19:12:32.599Z,2.85
2023-04-16T19:14:59.515Z,2.87
2023-04-16T19:17:26.667Z,2.90
2023-04-16T19:19:53.555Z,3.28
2023-04-16T19:22:20.563Z,2.90
2023-04-16T19:24:47.240Z,3.00
2023-04-16T19:27:13.977Z,2.60
2023-04-16T19:29:42.756Z,3.00
2023-04-16T19:32:09.507Z,2.70
2023-04-16T19:34:36.372Z,2.20
2023-04-16T19:37:03.092Z,2.47
2023-04-16T19:39:29.799Z,2.30
2023-04-16T19:41:56.494Z,2.58
2023-04-16T19:44:23.348Z,2.40
2023-04-16T19:46:50.077Z,3.53
2023-04-16T19:49:16.765Z,2.72
2023-04-16T19:51:43.359Z,2.60
2023-04-16T19:54:10.012Z,2.50
2023-04-16T19:56:36.666Z,2.50
2023-04-16T19:59:03.461Z,2.60
2023-04-16T20:01:33.185Z,2.55
2023-04-16T20:04:00.076Z,2.87
2023-04-16T20:06:26.847Z,3.05
2023-04-16T20:08:53.528Z,3.75
2023-04-16T20:11:20.463Z,3.63
2023-04-16T20:13:47.811Z,4.60
2023-04-16T20:16:14.910Z,5.23
2023-04-16T20:18:42.544Z,4.88
2023-04-16T20:21:09.755Z,5.80
2023-04-16T20:23:36.414Z,6.60
2023-04-16T20:26:04.432Z,6.93
2023-04-16T20:28:31.149Z,6.83
2023-04-16T20:30:58.026Z,7.03
2023-04-16T20:33:24.703Z,8.10
2023-04-16T20:35:52.292Z,7.50
2023-04-16T20:38:23.857Z,8.68
2023-04-16T20:41:06.177Z,7.70
2023-04-16T20:43:38.152Z,8.18
2023-04-16T20:46:05.275Z,8.13
2023-04-16T20:48:32.196Z,8.00
2023-04-16T20:51:03.669Z,8.50
2023-04-16T20:53:32.466Z,7.53
2023-04-16T20:56:02.815Z,7.88
2023-04-16T20:58:29.986Z,8.13
2023-04-16T21:00:57.636Z,8.07
2023-04-16T21:03:24.896Z,8.20
2023-04-16T21:05:53.489Z,9.20
2023-04-16T21:08:23.699Z,8.50
2023-04-16T21:10:51.220Z,8.18
2023-04-16T21:13:18.643Z,7.90
2023-04-16T21:15:46.017Z,8.45
2023-04-16T21:18:12.966Z,10.00
2023-04-16T21:20:39.850Z,9.63
2023-04-16T21:23:06.709Z,10.00
2023-04-16T21:25:33.622Z,9.50
2023-04-16T21:28:00.496Z,10.98
2023-04-16T21:30:27.256Z,11.80
2023-04-16T21:32:53.951Z,11.00
2023-04-16T21:35:20.730Z,11.32
2023-04-16T21:37:47.367Z,10.80
2023-04-16T21:40:14.233Z,11.05
2023-04-16T21:42:42.364Z,11.57
2023-04-16T21:45:10.395Z,11.52
2023-04-16T21:47:38.207Z,11.55
2023-04-16T21:50:05.866Z,10.80
2023-04-16T21:52:33.051Z,11.18
2023-04-16T21:55:00.340Z,11.07
2023-04-16T21:57:27.183Z,12.45
2023-04-16T21:59:53.833Z,12.00
2023-04-16T22:02:20.635Z,11.35
2023-04-16T22:04:48.576Z,10.88
2023-04-16T22:07:16.835Z,10.37
2023-04-16T22:09:43.742Z,11.07
2023-04-16T22:12:10.538Z,11.40
2023-04-16T22:14:42.068Z,11.13
2023-04-16T22:17:13.048Z,10.90
2023-04-16T22:19:39.707Z,9.77
2023-04-16T22:22:06.338Z,10.77
2023-04-16T22:24:33.089Z,10.27
2023-04-16T22:26:59.782Z,9.52
2023-04-16T22:29:26.456Z,8.13
2023-04-16T22:31:53.298Z,7.20
2023-04-16T22:34:20.010Z,6.90
2023-04-16T22:36:47.550Z,6.68
2023-04-16T22:39:14.627Z,6.78
2023-04-16T22:41:41.527Z,5.97
2023-04-16T22:44:08.191Z,5.80
2023-04-16T22:46:35.031Z,6.53
2023-04-16T22:49:01.809Z,5.00
2023-04-16T22:51:29.372Z,5.35
2023-04-16T22:53:56.422Z,5.10
2023-04-16T22:56:28.499Z,4.97
2023-04-16T22:58:55.449Z,4.75
2023-04-16T23:01:22.307Z,4.50
2023-04-16T23:03:49.115Z,4.40
2023-04-16T23:06:15.893Z,4.70
2023-04-16T23:08:42.566Z,4.23
2023-04-16T23:11:09.239Z,4.40
2023-04-16T23:13:36.274Z,4.43
2023-04-16T23:16:03.019Z,4.38
2023-04-16T23:18:29.742Z,4.35
2023-04-16T23:20:56.384Z,4.10
2023-04-16T23:23:23.085Z,4.28
2023-04-16T23:25:53.339Z,4.00
2023-04-16T23:28:20.581Z,4.10
2023-04-16T23:30:47.432Z,3.83
2023-04-16T23:33:14.080Z,3.70
2023-04-16T23:35:40.955Z,3.83
2023-04-16T23:38:07.570Z,3.80
2023-04-16T23:40:34.202Z,4.00
2023-04-16T23:43:00.884Z,3.85
2023-04-16T23:45:27.571Z,4.23
2023-04-16T23:47:54.316Z,15.55
2023-04-16T23:50:20.960Z,3.63
2023-04-16T23:52:47.565Z,3.45
2023-04-16T23:55:14.227Z,3.97
2023-04-16T23:57:40.851Z,5.43
